Time;durP1;ratioP1;P1;durP2;ratioP2;P2;SDS_P1;SDS_P2;PMS_P1;PMS_P2;Temp;Humidity;BMP_temperature;BMP_pressure;BME280_temperature;BME280_humidity;BME280_pressure;Samples;Min_cycle;Max_cycle;Signal;HPM_P1;HPM_P2
2022/09/03 00:00:07;;;;;;;1.85;1.65;;;17.80;1.00;;;;;;5115796;28;20235;-84
2022/09/03 00:02:39;;;;;;;3.28;1.52;;;17.80;1.00;;;;;;5115769;28;20268;-87
2022/09/03 00:05:13;;;;;;;5.43;1.85;;;17.80;1.00;;;;;;5114724;28;20204;-88
2022/09/03 00:07:47;;;;;;;2.95;1.60;;;17.70;1.00;;;;;;5115532;28;20195;-88
2022/09/03 00:10:20;;;;;;;2.50;1.60;;;17.70;1.00;;;;;;5117041;28;20226;-89
2022/09/03 00:12:50;;;;;;;3.05;1.92;;;17.70;1.00;;;;;;5116168;28;20204;-89
2022/09/03 00:15:19;;;;;;;2.95;1.70;;;17.70;1.00;;;;;;5116935;28;20651;-89
2022/09/03 00:17:50;;;;;;;2.38;1.60;;;17.70;1.00;;;;;;5101482;28;20219;-86
2022/09/03 00:20:22;;;;;;;4.40;1.77;;;17.70;1.00;;;;;;5096315;28;20589;-87
2022/09/03 00:22:52;;;;;;;2.53;1.70;;;17.60;1.00;;;;;;5101410;28;20269;-87
2022/09/03 00:25:24;;;;;;;2.55;1.38;;;17.60;1.00;;;;;;5115304;28;20279;-86
2022/09/03 00:27:56;;;;;;;2.38;1.73;;;17.50;1.00;;;;;;5100095;28;20209;-83
2022/09/03 00:30:26;;;;;;;1.60;1.50;;;17.50;1.00;;;;;;5096512;28;20650;-87
2022/09/03 00:32:57;;;;;;;2.05;1.52;;;17.40;1.00;;;;;;5107317;28;20307;-87
2022/09/03 00:35:30;;;;;;;2.67;1.85;;;17.40;18.80;;;;;;5116800;28;20572;-87
2022/09/03 00:37:57;;;;;;;1.92;1.50;;;17.40;37.80;;;;;;5116995;28;20222;-88
2022/09/03 00:40:53;;;;;;;3.28;2.10;;;17.40;99.90;;;;;;5113404;28;20208;-87
2022/09/03 00:43:31;;;;;;;2.33;1.52;;;17.40;99.90;;;;;;5095558;28;20195;-87
2022/09/03 00:46:09;;;;;;;2.92;1.50;;;17.40;99.90;;;;;;5096482;28;20192;-88
2022/09/03 00:48:50;;;;;;;6.20;1.75;;;17.40;99.90;;;;;;5116338;28;20196;-84
2022/09/03 00:51:27;;;;;;;1.88;1.77;;;17.30;1.00;;;;;;5116568;28;20278;-88
2022/09/03 00:54:00;;;;;;;3.63;1.52;;;17.30;99.90;;;;;;5105830;28;20219;-88
2022/09/03 00:56:37;;;;;;;2.70;1.70;;;17.30;99.90;;;;;;5095728;28;20209;-83
2022/09/03 00:59:25;;;;;;;2.63;1.98;;;17.30;1.00;;;;;;5106416;28;20231;-85
2022/09/03 01:02:05;;;;;;;3.10;1.70;;;17.30;99.90;;;;;;5115476;28;20487;-85
2022/09/03 01:04:45;;;;;;;3.55;1.80;;;17.20;99.90;;;;;;5115209;28;20210;-84
2022/09/03 01:07:24;;;;;;;2.30;1.83;;;17.20;1.00;;;;;;5106586;28;20196;-87
2022/09/03 01:09:59;;;;;;;3.67;2.10;;;17.20;1.00;;;;;;5094674;28;20200;-88
2022/09/03 01:12:38;;;;;;;3.17;1.80;;;17.20;1.00;;;;;;5093909;28;20223;-86
2022/09/03 01:15:12;;;;;;;2.30;1.70;;;17.10;1.00;;;;;;5095250;28;20199;-89
2022/09/03 01:17:59;;;;;;;1.83;1.63;;;17.10;1.00;;;;;;5095068;28;20287;-87
2022/09/03 01:20:40;;;;;;;3.05;1.70;;;17.00;1.00;;;;;;5095397;28;20188;-84
2022/09/03 01:23:44;;;;;;;2.15;1.48;;;17.00;1.00;;;;;;5093339;28;20200;-84
2022/09/03 01:26:28;;;;;;;2.85;1.52;;;17.00;1.00;;;;;;5095139;28;20281;-88
2022/09/03 01:29:10;;;;;;;3.88;1.65;;;17.00;1.00;;;;;;5074638;28;20225;-87
2022/09/03 01:31:46;;;;;;;1.83;1.50;;;17.00;1.00;;;;;;5084551;28;20662;-86
2022/09/03 01:34:24;;;;;;;2.10;1.60;;;17.00;1.00;;;;;;5115836;28;20180;-82
2022/09/03 01:37:02;;;;;;;1.98;1.60;;;17.00;1.00;;;;;;5115123;28;20214;-87
2022/09/03 01:39:38;;;;;;;2.28;1.70;;;16.90;1.00;;;;;;5115621;28;20188;-88
2022/09/03 01:42:19;;;;;;;4.95;1.42;;;16.90;1.00;;;;;;5097651;28;20275;-86
2022/09/03 01:45:20;;;;;;;1.70;1.60;;;16.90;1.00;;;;;;5093815;28;20196;-82
2022/09/03 01:48:03;;;;;;;2.38;1.52;;;16.90;1.00;;;;;;5094126;28;20488;-87
2022/09/03 01:50:41;;;;;;;2.03;1.70;;;16.90;1.00;;;;;;5094193;28;20224;-83
2022/09/03 01:53:19;;;;;;;1.80;1.60;;;16.80;1.00;;;;;;5094343;28;20199;-82
2022/09/03 01:56:04;;;;;;;1.98;1.70;;;16.80;1.00;;;;;;5094223;28;20204;-86
2022/09/03 01:58:35;;;;;;;4.70;1.60;;;16.80;1.00;;;;;;5094937;28;20484;-87
2022/09/03 02:01:12;;;;;;;3.03;1.80;;;16.80;1.00;;;;;;5073902;28;20266;-88
2022/09/03 02:03:43;;;;;;;3.83;1.90;;;16.80;1.00;;;;;;5074480;28;20326;-85
2022/09/03 02:06:11;;;;;;;2.70;1.63;;;16.80;1.00;;;;;;5073821;28;20275;-86
2022/09/03 02:08:40;;;;;;;2.15;1.60;;;16.80;1.00;;;;;;5072398;28;20286;-81
2022/09/03 02:11:09;;;;;;;1.92;1.60;;;16.80;1.00;;;;;;5072411;28;20284;-80
2022/09/03 02:13:38;;;;;;;2.10;1.80;;;16.80;1.00;;;;;;5071651;28;20197;-81
2022/09/03 02:16:11;;;;;;;3.78;1.70;;;16.70;1.00;;;;;;5089671;28;20207;-80
2022/09/03 02:18:42;;;;;;;2.78;1.98;;;16.70;1.00;;;;;;5091124;28;20200;-80
2022/09/03 02:21:10;;;;;;;2.50;1.45;;;16.70;15.40;;;;;;5091995;28;20196;-80
2022/09/03 02:23:39;;;;;;;3.35;1.75;;;16.70;99.90;;;;;;5092193;28;20196;-80
2022/09/03 02:26:10;;;;;;;2.92;1.55;;;16.70;99.90;;;;;;5088005;28;20208;-80
2022/09/03 02:28:37;;;;;;;2.03;1.83;;;16.60;1.00;;;;;;5071644;28;20650;-80
2022/09/03 02:31:04;;;;;;;3.05;1.70;;;16.60;1.00;;;;;;5073140;28;20232;-83
2022/09/03 02:33:35;;;;;;;3.67;1.58;;;16.60;1.00;;;;;;5091578;28;20215;-82
2022/09/03 02:36:04;;;;;;;1.60;1.50;;;16.60;1.00;;;;;;5092504;28;20222;-82
2022/09/03 02:38:31;;;;;;;2.20;1.60;;;16.50;5.30;;;;;;5094041;28;20585;-87
2022/09/03 02:40:58;;;;;;;3.45;1.90;;;16.50;99.90;;;;;;5089258;28;20255;-82
2022/09/03 02:43:31;;;;;;;4.35;1.58;;;16.50;33.50;;;;;;5074109;28;20197;-87
2022/09/03 02:46:03;;;;;;;2.92;1.80;;;16.50;1.00;;;;;;5074577;28;20262;-86
2022/09/03 02:48:31;;;;;;;2.05;1.85;;;16.50;1.00;;;;;;5074651;28;20197;-88
2022/09/03 02:50:58;;;;;;;3.10;1.77;;;16.50;1.00;;;;;;5074055;28;20320;-83
2022/09/03 02:53:27;;;;;;;6.03;2.28;;;16.40;21.20;;;;;;5073924;28;20201;-84
2022/09/03 02:55:58;;;;;;;2.30;1.60;;;16.40;1.00;;;;;;5072505;28;20200;-87
2022/09/03 02:58:25;;;;;;;2.60;1.80;;;16.40;99.90;;;;;;5086545;28;20204;-82
2022/09/03 03:00:52;;;;;;;3.70;1.92;;;16.30;99.90;;;;;;5112725;28;20228;-86
2022/09/03 03:03:19;;;;;;;3.83;2.00;;;16.30;99.90;;;;;;5113057;28;20471;-82
2022/09/03 03:05:50;;;;;;;4.28;1.88;;;16.20;1.00;;;;;;5113658;28;20258;-83
2022/09/03 03:08:20;;;;;;;5.13;2.22;;;16.20;1.00;;;;;;5112671;28;20204;-81
2022/09/03 03:10:48;;;;;;;2.35;1.75;;;16.20;1.00;;;;;;5105030;28;20221;-88
2022/09/03 03:13:16;;;;;;;3.63;1.63;;;16.20;1.00;;;;;;5093310;28;20230;-86
2022/09/03 03:15:43;;;;;;;2.95;1.75;;;16.10;1.00;;;;;;5092828;28;20200;-83
2022/09/03 03:18:10;;;;;;;2.85;1.70;;;16.20;99.90;;;;;;5092286;28;20211;-83
2022/09/03 03:20:37;;;;;;;2.28;1.90;;;16.10;1.00;;;;;;5093165;28;20567;-83
2022/09/03 03:23:06;;;;;;;3.20;2.20;;;16.00;1.00;;;;;;5092879;28;20618;-81
2022/09/03 03:25:33;;;;;;;3.90;2.00;;;16.00;1.00;;;;;;5092817;28;20216;-82
2022/09/03 03:28:00;;;;;;;3.75;1.90;;;16.00;99.90;;;;;;5093312;28;20599;-84
2022/09/03 03:30:27;;;;;;;3.40;2.00;;;16.00;99.90;;;;;;5095943;28;20217;-86
2022/09/03 03:32:54;;;;;;;4.18;1.95;;;16.00;1.00;;;;;;5095894;28;20201;-86
2022/09/03 03:35:22;;;;;;;2.17;1.90;;;15.90;19.20;;;;;;5097255;28;20199;-87
2022/09/03 03:37:49;;;;;;;2.75;1.58;;;16.00;99.90;;;;;;5097759;28;20344;-87
2022/09/03 03:40:19;;;;;;;3.85;2.10;;;15.90;99.90;;;;;;5117628;28;20676;-85
2022/09/03 03:42:45;;;;;;;2.13;1.90;;;15.90;99.90;;;;;;5108459;28;20597;-86
2022/09/03 03:45:12;;;;;;;2.38;1.90;;;15.80;1.00;;;;;;5096984;28;20209;-86
2022/09/03 03:47:39;;;;;;;3.83;1.75;;;15.80;1.00;;;;;;5096834;28;20631;-86
2022/09/03 03:50:07;;;;;;;2.20;1.90;;;15.80;1.00;;;;;;5096559;28;20227;-87
2022/09/03 03:52:34;;;;;;;1.92;1.77;;;15.80;1.00;;;;;;5096626;28;20659;-84
2022/09/03 03:55:01;;;;;;;4.20;2.00;;;15.80;1.00;;;;;;5096753;28;20788;-87
2022/09/03 03:57:31;;;;;;;2.45;1.77;;;15.70;1.00;;;;;;5094980;28;20228;-84
2022/09/03 03:59:58;;;;;;;2.35;1.80;;;15.80;1.00;;;;;;5096328;28;20244;-88
2022/09/03 04:02:25;;;;;;;3.08;2.20;;;15.70;1.00;;;;;;5096239;28;20600;-86
2022/09/03 04:04:52;;;;;;;2.47;2.05;;;15.70;1.00;;;;;;5096327;28;20660;-84
2022/09/03 04:07:19;;;;;;;2.45;2.13;;;15.70;1.00;;;;;;5096547;28;20279;-86
2022/09/03 04:09:46;;;;;;;3.28;2.50;;;15.70;1.00;;;;;;5100190;28;20591;-87
2022/09/03 04:12:12;;;;;;;5.45;2.30;;;15.70;1.00;;;;;;5116098;28;20196;-83
2022/09/03 04:14:41;;;;;;;3.65;2.72;;;15.70;1.00;;;;;;5110913;28;20233;-86
2022/09/03 04:17:08;;;;;;;3.92;2.88;;;15.60;1.00;;;;;;5096346;28;20257;-86
2022/09/03 04:19:35;;;;;;;3.40;2.80;;;15.60;1.00;;;;;;5096186;28;20197;-84
2022/09/03 04:22:02;;;;;;;4.88;3.10;;;15.60;1.00;;;;;;5095242;28;20203;-85
2022/09/03 04:24:29;;;;;;;2.90;2.60;;;15.60;1.00;;;;;;5096629;28;20215;-86
2022/09/03 04:26:56;;;;;;;5.88;3.38;;;15.50;1.00;;;;;;5095503;28;20794;-87
2022/09/03 04:29:23;;;;;;;7.68;3.28;;;15.60;1.00;;;;;;5095762;28;20196;-85
2022/09/03 04:34:35;;;;;;;3.47;3.13;;;15.50;1.00;;;;;;5094794;28;20211;-86
2022/09/03 04:37:02;;;;;;;4.40;3.40;;;15.50;1.00;;;;;;5096550;28;20207;-85
2022/09/03 04:39:29;;;;;;;4.38;3.60;;;15.50;1.00;;;;;;5093486;28;20679;-84
2022/09/03 04:41:56;;;;;;;4.07;3.65;;;15.50;1.00;;;;;;5095025;28;20196;-86
2022/09/03 04:44:23;;;;;;;5.13;3.22;;;15.50;1.00;;;;;;5109869;28;20482;-87
2022/09/03 04:46:52;;;;;;;5.32;4.00;;;15.50;1.00;;;;;;5116134;28;20196;-86
2022/09/03 04:49:19;;;;;;;6.38;3.97;;;15.50;1.00;;;;;;5102790;28;20200;-85
2022/09/03 04:51:46;;;;;;;5.00;3.25;;;15.40;1.00;;;;;;5095626;28;20273;-85
2022/09/03 04:54:13;;;;;;;6.80;3.80;;;15.40;1.00;;;;;;5095365;28;20201;-84
2022/09/03 04:56:40;;;;;;;6.40;3.72;;;15.40;1.00;;;;;;5095783;28;20541;-85
2022/09/03 04:59:09;;;;;;;5.88;3.50;;;15.40;1.00;;;;;;5095613;28;20228;-85
2022/09/03 05:01:38;;;;;;;4.22;3.63;;;15.40;1.00;;;;;;5095495;28;20199;-85
2022/09/03 05:04:07;;;;;;;5.18;3.55;;;15.40;1.00;;;;;;5095165;28;20551;-84
2022/09/03 05:06:35;;;;;;;5.00;4.05;;;15.40;1.00;;;;;;5095331;28;20223;-84
2022/09/03 05:09:03;;;;;;;5.53;4.25;;;15.40;1.00;;;;;;5092995;28;20209;-85
2022/09/03 05:11:30;;;;;;;5.30;4.18;;;15.40;1.00;;;;;;5102361;28;20232;-81
2022/09/03 05:13:59;;;;;;;5.40;3.63;;;15.30;1.00;;;;;;5113768;28;20195;-78
2022/09/03 05:16:28;;;;;;;5.38;3.60;;;15.40;1.00;;;;;;5112372;28;20592;-79
2022/09/03 05:18:58;;;;;;;6.00;3.88;;;15.30;1.00;;;;;;5112810;28;20288;-80
2022/09/03 05:21:28;;;;;;;5.00;4.13;;;15.30;1.00;;;;;;5096797;28;20250;-79
2022/09/03 05:23:54;;;;;;;3.88;3.45;;;15.30;1.00;;;;;;5093191;28;20246;-80
2022/09/03 05:26:23;;;;;;;5.47;3.93;;;15.40;1.00;;;;;;5092719;28;20238;-80
2022/09/03 05:28:54;;;;;;;3.53;3.10;;;15.40;1.00;;;;;;5092244;28;20207;-82
2022/09/03 05:31:24;;;;;;;4.85;3.88;;;15.40;1.00;;;;;;5092697;28;20229;-85
2022/09/03 05:33:53;;;;;;;5.38;3.92;;;15.40;1.00;;;;;;5093498;28;20200;-84
2022/09/03 05:36:22;;;;;;;6.15;4.13;;;15.40;1.00;;;;;;5093325;28;20238;-81
2022/09/03 05:38:52;;;;;;;4.78;3.40;;;15.40;1.00;;;;;;5093594;28;20280;-82
2022/09/03 05:41:21;;;;;;;4.60;3.60;;;15.40;1.00;;;;;;5093817;28;20715;-83
2022/09/03 05:43:52;;;;;;;4.43;3.28;;;15.40;1.00;;;;;;5092808;28;20192;-81
2022/09/03 05:46:26;;;;;;;4.85;3.78;;;15.40;1.00;;;;;;5093822;28;20791;-82
2022/09/03 05:48:53;;;;;;;7.78;3.45;;;15.40;1.00;;;;;;5096476;28;20210;-86
2022/09/03 05:51:20;;;;;;;4.30;3.30;;;15.50;1.00;;;;;;5101005;28;20219;-82
2022/09/03 05:53:52;;;;;;;4.03;3.15;;;15.50;1.00;;;;;;5112135;28;20196;-82
2022/09/03 05:56:21;;;;;;;3.50;2.83;;;15.50;1.00;;;;;;5102249;28;20520;-84
2022/09/03 05:58:51;;;;;;;4.80;2.72;;;15.50;1.00;;;;;;5093261;28;20200;-84
2022/09/03 06:01:19;;;;;;;5.63;2.90;;;15.50;1.00;;;;;;5092175;28;20200;-86
2022/09/03 06:03:48;;;;;;;6.72;3.08;;;15.60;1.00;;;;;;5093463;28;20245;-84
2022/09/03 06:06:15;;;;;;;4.37;2.90;;;15.60;1.00;;;;;;5093557;28;20787;-83
2022/09/03 06:08:43;;;;;;;4.80;2.70;;;15.60;1.00;;;;;;5092023;28;20209;-85
2022/09/03 06:11:12;;;;;;;5.32;2.47;;;15.60;1.00;;;;;;5092520;28;20315;-81
2022/09/03 06:13:38;;;;;;;4.38;2.50;;;15.70;1.00;;;;;;5093460;28;20185;-83
2022/09/03 06:16:07;;;;;;;4.03;2.50;;;15.70;1.00;;;;;;5110008;28;20618;-84
2022/09/03 06:18:34;;;;;;;2.47;2.22;;;15.70;1.00;;;;;;5113813;28;20199;-84
2022/09/03 06:21:03;;;;;;;4.78;2.55;;;15.70;1.00;;;;;;5114031;28;20196;-82
2022/09/03 06:23:32;;;;;;;3.88;2.33;;;15.80;1.00;;;;;;5112621;28;20200;-85
2022/09/03 06:26:04;;;;;;;4.28;2.22;;;15.80;1.00;;;;;;5113688;28;20232;-84
2022/09/03 06:28:33;;;;;;;3.65;2.58;;;15.90;1.00;;;;;;5100607;28;20218;-84
2022/09/03 06:31:01;;;;;;;3.67;2.58;;;15.90;1.00;;;;;;5090314;28;20282;-80
2022/09/03 06:33:30;;;;;;;4.55;2.25;;;15.90;1.00;;;;;;5087221;28;20250;-78
2022/09/03 06:35:58;;;;;;;4.65;2.33;;;15.90;1.00;;;;;;5092394;28;20203;-84
2022/09/03 06:38:26;;;;;;;4.15;2.40;;;16.00;1.00;;;;;;5082318;28;20324;-82
2022/09/03 06:40:54;;;;;;;5.72;2.20;;;16.10;1.00;;;;;;5093658;28;20607;-81
2022/09/03 06:43:22;;;;;;;2.90;2.15;;;16.20;1.00;;;;;;5088253;28;20195;-82
2022/09/03 06:45:58;;;;;;;4.28;2.00;;;16.20;1.00;;;;;;5095358;28;20208;-85
2022/09/03 06:48:25;;;;;;;2.72;1.73;;;16.30;1.00;;;;;;5112351;28;20221;-84
2022/09/03 06:50:57;;;;;;;3.90;2.13;;;16.30;1.00;;;;;;5111880;28;20253;-80
2022/09/03 06:53:25;;;;;;;3.42;2.05;;;16.30;1.00;;;;;;5112750;28;20588;-83
2022/09/03 06:55:56;;;;;;;2.17;1.60;;;16.40;1.00;;;;;;5112937;28;20235;-81
2022/09/03 06:58:23;;;;;;;3.90;2.10;;;16.50;1.00;;;;;;5112493;28;20196;-84
2022/09/03 07:00:51;;;;;;;4.10;1.83;;;16.50;1.00;;;;;;5112706;28;20228;-81
2022/09/03 07:03:20;;;;;;;4.68;2.10;;;16.50;1.00;;;;;;5114073;27;20199;-84
2022/09/03 07:05:47;;;;;;;5.43;1.70;;;16.60;1.00;;;;;;5115197;28;20776;-83
2022/09/03 07:08:14;;;;;;;3.78;1.50;;;16.70;1.00;;;;;;5095796;28;20752;-81
2022/09/03 07:10:45;;;;;;;1.60;1.50;;;16.70;1.00;;;;;;5095724;28;20263;-83
2022/09/03 07:13:12;;;;;;;2.38;1.70;;;16.80;1.00;;;;;;5100187;28;20201;-82
2022/09/03 07:15:40;;;;;;;2.03;1.20;;;16.90;1.00;;;;;;5095542;28;20518;-84
2022/09/03 07:18:06;;;;;;;3.47;1.42;;;17.00;1.00;;;;;;5096561;28;20379;-84
2022/09/03 07:20:35;;;;;;;2.35;1.83;;;17.00;1.00;;;;;;5096053;28;20283;-81
2022/09/03 07:23:02;;;;;;;4.13;1.42;;;17.10;1.00;;;;;;5086946;28;20209;-81
2022/09/03 07:25:30;;;;;;;3.65;1.60;;;17.20;1.00;;;;;;5075833;28;20201;-85
2022/09/03 07:27:57;;;;;;;4.25;1.70;;;17.30;1.00;;;;;;5114599;28;20231;-84
2022/09/03 07:30:25;;;;;;;3.10;1.25;;;17.50;1.00;;;;;;5115959;28;20286;-83
2022/09/03 07:32:52;;;;;;;2.53;1.75;;;17.60;1.00;;;;;;5116927;28;20736;-84
2022/09/03 07:35:19;;;;;;;1.63;1.33;;;17.70;1.00;;;;;;5113986;28;20215;-83
2022/09/03 07:37:48;;;;;;;2.50;1.75;;;17.80;1.00;;;;;;5107575;28;20189;-83
2022/09/03 07:40:17;;;;;;;2.72;1.33;;;17.90;99.90;;;;;;5096155;28;20236;-82
2022/09/03 07:42:47;;;;;;;2.65;1.60;;;18.00;1.00;;;;;;5095447;28;20200;-84
2022/09/03 07:45:14;;;;;;;2.08;1.30;;;18.10;99.90;;;;;;5095939;28;20196;-84
2022/09/03 07:47:48;;;;;;;2.05;1.20;;;18.10;99.90;;;;;;5095638;28;20193;-81
2022/09/03 07:50:16;;;;;;;2.20;1.50;;;18.20;99.90;;;;;;5099344;28;20615;-83
2022/09/03 07:52:43;;;;;;;3.03;1.30;;;18.30;99.90;;;;;;5118564;22;20249;-86
2022/09/03 07:55:11;;;;;;;1.35;1.20;;;18.40;1.00;;;;;;5109185;28;20200;-82
2022/09/03 07:57:38;;;;;;;3.63;1.67;;;18.60;1.00;;;;;;5101643;27;20215;-84
2022/09/03 08:00:07;;;;;;;1.92;1.20;;;18.70;1.00;;;;;;5095562;28;20292;-82
2022/09/03 08:02:33;;;;;;;2.05;1.40;;;18.90;1.00;;;;;;5106031;27;20206;-82
2022/09/03 08:05:00;;;;;;;3.20;1.23;;;19.20;1.00;;;;;;5106628;27;20191;-83
2022/09/03 08:07:29;;;;;;;2.15;1.13;;;19.40;99.90;;;;;;5115510;27;20196;-84
2022/09/03 08:09:56;;;;;;;3.40;1.48;;;19.70;94.30;;;;;;5094786;28;20197;-82
2022/09/03 08:12:24;;;;;;;1.42;1.30;;;19.90;1.00;;;;;;5094191;28;20220;-82
2022/09/03 08:14:51;;;;;;;2.00;0.93;;;20.20;29.30;;;;;;5093486;28;20200;-83
2022/09/03 08:17:18;;;;;;;2.15;1.10;;;20.50;1.00;;;;;;5099989;27;20204;-81
2022/09/03 08:19:44;;;;;;;3.00;1.10;;;20.80;1.00;;;;;;5115083;28;20635;-82
2022/09/03 08:22:12;;;;;;;2.85;1.30;;;21.10;1.00;;;;;;5115319;28;20324;-81
2022/09/03 08:24:39;;;;;;;2.33;1.20;;;21.30;99.90;;;;;;5114704;27;20203;-81
2022/09/03 08:27:06;;;;;;;1.65;1.23;;;21.60;99.90;;;;;;5114915;28;20204;-79
2022/09/03 08:29:35;;;;;;;3.40;1.60;;;21.90;99.90;;;;;;5115542;28;20273;-81
2022/09/03 08:32:01;;;;;;;2.20;1.35;;;22.10;99.90;;;;;;5095503;28;20236;-82
2022/09/03 08:34:28;;;;;;;7.85;1.52;;;22.20;99.90;;;;;;5094692;28;20235;-82
2022/09/03 08:36:55;;;;;;;6.63;1.30;;;22.40;99.90;;;;;;5094746;27;20188;-81
2022/09/03 08:39:22;;;;;;;2.55;1.48;;;22.50;99.90;;;;;;5093508;28;20184;-81
2022/09/03 08:42:13;;;;;;;2.33;1.05;;;22.80;99.90;;;;;;5094690;28;20207;-83
2022/09/03 08:44:46;;;;;;;3.00;1.50;;;23.00;99.90;;;;;;5109818;27;20510;-80
2022/09/03 08:47:17;;;;;;;3.15;1.50;;;23.10;99.90;;;;;;5113404;28;20207;-82
2022/09/03 08:49:48;;;;;;;3.50;1.23;;;23.30;99.90;;;;;;5094912;28;20541;-82
2022/09/03 08:52:26;;;;;;;2.58;1.20;;;23.40;99.90;;;;;;5094897;28;20236;-85
2022/09/03 08:55:00;;;;;;;3.13;1.50;;;23.50;99.90;;;;;;5094901;28;20235;-83
2022/09/03 08:57:42;;;;;;;2.35;1.35;;;23.70;99.90;;;;;;5094901;28;20204;-80
2022/09/03 09:00:12;;;;;;;2.78;1.10;;;23.70;99.90;;;;;;5093629;28;20269;-83
2022/09/03 09:02:48;;;;;;;1.33;1.13;;;23.90;99.90;;;;;;5094534;27;20604;-85
2022/09/03 09:05:18;;;;;;;1.42;0.98;;;24.10;99.90;;;;;;5094429;28;20275;-84
2022/09/03 09:07:52;;;;;;;2.00;1.30;;;24.30;99.90;;;;;;5112249;27;20203;-83
2022/09/03 09:10:25;;;;;;;3.65;1.40;;;24.50;99.90;;;;;;5135166;27;20609;-83
2022/09/03 09:13:05;;;;;;;2.05;1.30;;;24.70;99.90;;;;;;5135209;27;20300;-82
2022/09/03 09:15:46;;;;;;;4.05;1.25;;;24.80;99.90;;;;;;5095873;27;20539;-82
2022/09/03 09:18:23;;;;;;;3.97;1.33;;;24.80;99.90;;;;;;5112578;27;20293;-81
2022/09/03 09:20:53;;;;;;;1.08;0.98;;;24.90;99.90;;;;;;5133983;27;20195;-83
2022/09/03 09:23:28;;;;;;;4.30;1.40;;;24.90;99.90;;;;;;5134356;27;20199;-81
2022/09/03 09:25:57;;;;;;;2.20;1.20;;;25.00;99.90;;;;;;5101142;27;20287;-83
2022/09/03 09:28:29;;;;;;;1.95;1.17;;;25.20;99.90;;;;;;5093216;28;20556;-83
2022/09/03 09:30:57;;;;;;;1.88;1.00;;;25.30;99.90;;;;;;5101181;28;20212;-85
2022/09/03 09:33:25;;;;;;;2.67;1.35;;;25.30;99.90;;;;;;5093667;28;20216;-79
2022/09/03 09:35:51;;;;;;;4.97;1.27;;;25.40;99.90;;;;;;5092823;28;20219;-82
2022/09/03 09:38:29;;;;;;;3.67;1.38;;;25.30;99.90;;;;;;5105528;27;20199;-83
2022/09/03 09:40:58;;;;;;;2.72;1.08;;;25.30;99.90;;;;;;5114397;28;20217;-81
2022/09/03 09:43:25;;;;;;;4.93;1.17;;;25.30;99.90;;;;;;5115011;27;20192;-82
2022/09/03 09:45:54;;;;;;;2.03;1.30;;;25.40;99.90;;;;;;5134068;27;20786;-84
2022/09/03 09:48:30;;;;;;;1.55;1.17;;;25.40;99.90;;;;;;5134412;27;20203;-83
2022/09/03 09:51:05;;;;;;;3.70;1.10;;;25.40;99.90;;;;;;5134659;27;20200;-85
2022/09/03 09:53:33;;;;;;;1.60;1.20;;;25.50;99.90;;;;;;5136410;27;20202;-83
2022/09/03 09:56:01;;;;;;;2.50;1.00;;;25.50;99.90;;;;;;5138343;27;20609;-83
2022/09/03 09:58:30;;;;;;;2.92;1.10;;;25.70;99.90;;;;;;5130780;27;20215;-81
2022/09/03 10:01:01;;;;;;;2.38;1.20;;;25.60;99.90;;;;;;5119537;28;20211;-82
2022/09/03 10:03:33;;;;;;;3.83;1.27;;;25.60;99.90;;;;;;5118114;28;20199;-82
2022/09/03 10:09:06;;;;;;;2.47;1.17;;;25.80;99.90;;;;;;5100668;27;20196;-85
2022/09/03 10:11:38;;;;;;;1.58;1.23;;;26.00;99.90;;;;;;5093064;28;20238;-83
2022/09/03 10:14:13;;;;;;;2.63;1.20;;;26.10;99.90;;;;;;5093868;28;20197;-84
2022/09/03 10:16:44;;;;;;;1.77;1.10;;;26.30;99.90;;;;;;5093627;28;20484;-83
2022/09/03 10:19:17;;;;;;;2.42;1.10;;;26.50;99.90;;;;;;5093742;28;20250;-85
2022/09/03 10:21:49;;;;;;;3.70;1.02;;;26.70;99.90;;;;;;5093483;28;20189;-81
2022/09/03 10:24:31;;;;;;;2.92;1.50;;;26.80;99.90;;;;;;5103522;28;20220;-84
2022/09/03 10:26:58;;;;;;;3.25;1.40;;;26.70;99.90;;;;;;5113345;28;20269;-85
2022/09/03 10:29:28;;;;;;;3.90;1.23;;;26.50;99.90;;;;;;5113645;28;20303;-84
2022/09/03 10:32:07;;;;;;;4.50;1.02;;;26.50;99.90;;;;;;5114270;28;20224;-85
2022/09/03 10:34:45;;;;;;;1.83;1.10;;;26.80;99.90;;;;;;5134063;27;20215;-86
2022/09/03 10:37:22;;;;;;;4.65;1.45;;;26.90;99.90;;;;;;5133248;27;20281;-83
2022/09/03 10:40:14;;;;;;;1.40;1.10;;;27.00;99.90;;;;;;5133395;28;20247;-84
2022/09/03 10:42:46;;;;;;;3.75;1.35;;;27.10;99.90;;;;;;5133886;28;20262;-83
2022/09/03 10:45:19;;;;;;;1.75;1.20;;;27.20;99.90;;;;;;5094731;28;20501;-84
2022/09/03 10:48:18;;;;;;;1.15;1.00;;;27.10;99.90;;;;;;5115695;28;20281;-83
2022/09/03 10:50:51;;;;;;;1.45;1.00;;;27.30;99.90;;;;;;5117839;28;20235;-87
2022/09/03 10:53:30;;;;;;;3.08;1.52;;;27.50;99.90;;;;;;5115185;28;20216;-83
2022/09/03 10:56:01;;;;;;;1.38;1.00;;;27.70;99.90;;;;;;5135034;28;20256;-85
2022/09/03 10:58:57;;;;;;;2.50;1.00;;;27.70;99.90;;;;;;5118080;28;20239;-85
2022/09/03 11:01:35;;;;;;;2.80;1.20;;;28.00;99.90;;;;;;5114029;28;20276;-84
2022/09/03 11:04:19;;;;;;;4.13;1.65;;;27.80;99.90;;;;;;5114448;28;20234;-85
2022/09/03 11:06:52;;;;;;;2.30;1.27;;;27.90;99.90;;;;;;5110491;28;20195;-84
2022/09/03 11:09:23;;;;;;;3.17;1.13;;;27.80;99.90;;;;;;5093326;28;20465;-82
2022/09/03 11:11:55;;;;;;;4.97;1.20;;;28.10;99.90;;;;;;5091925;28;20203;-83
2022/09/03 11:14:32;;;;;;;3.97;1.40;;;28.20;99.90;;;;;;5104994;28;20197;-85
2022/09/03 11:17:05;;;;;;;2.08;1.20;;;28.30;99.90;;;;;;5133183;28;20190;-84
2022/09/03 11:19:36;;;;;;;4.53;0.88;;;28.40;99.90;;;;;;5133060;28;20221;-84
2022/09/03 11:22:07;;;;;;;2.42;1.00;;;28.40;99.90;;;;;;5132553;28;20215;-82
2022/09/03 11:24:38;;;;;;;2.35;1.35;;;28.40;99.90;;;;;;5122498;28;20235;-86
2022/09/03 11:27:19;;;;;;;3.10;1.33;;;28.40;99.90;;;;;;5111739;28;20226;-87
2022/09/03 11:29:52;;;;;;;4.10;1.17;;;28.50;99.90;;;;;;5093433;28;20207;-83
2022/09/03 11:32:23;;;;;;;3.00;1.20;;;28.50;99.90;;;;;;5093445;28;20220;-82
2022/09/03 11:34:53;;;;;;;3.45;1.30;;;28.50;99.90;;;;;;5104261;28;20291;-84
2022/09/03 11:37:26;;;;;;;1.67;0.90;;;28.70;99.90;;;;;;5113901;28;20211;-83
2022/09/03 11:39:59;;;;;;;1.60;0.95;;;28.90;99.90;;;;;;5113444;28;20287;-83
2022/09/03 11:42:37;;;;;;;2.25;1.10;;;28.90;99.90;;;;;;5112610;28;20192;-83
2022/09/03 11:45:20;;;;;;;3.95;1.27;;;28.90;99.90;;;;;;5113324;28;20287;-86
2022/09/03 11:47:48;;;;;;;2.17;1.35;;;28.90;99.90;;;;;;5112588;28;20275;-85
2022/09/03 11:50:22;;;;;;;2.60;1.20;;;29.00;99.90;;;;;;5093148;28;20200;-82
2022/09/03 11:52:52;;;;;;;1.42;1.20;;;28.80;99.90;;;;;;5095942;28;20526;-86
2022/09/03 11:55:29;;;;;;;3.75;1.40;;;28.70;99.90;;;;;;5098791;27;20208;-79
2022/09/03 11:57:56;;;;;;;5.57;1.25;;;28.60;99.90;;;;;;5117013;28;20253;-80
2022/09/03 12:00:23;;;;;;;2.20;1.10;;;28.50;99.90;;;;;;5116804;28;20199;-84
2022/09/03 12:02:55;;;;;;;1.40;0.80;;;28.60;99.90;;;;;;5115853;28;20238;-84
2022/09/03 12:05:31;;;;;;;1.50;0.90;;;28.80;99.90;;;;;;5116786;28;20271;-82
2022/09/03 12:08:14;;;;;;;3.75;1.20;;;29.00;99.90;;;;;;5116157;28;20227;-84
2022/09/03 12:10:53;;;;;;;2.25;1.00;;;29.00;99.90;;;;;;5123922;27;20217;-83
2022/09/03 12:13:33;;;;;;;2.13;0.98;;;29.00;99.90;;;;;;5136607;27;20215;-82
2022/09/03 12:16:32;;;;;;;6.15;1.15;;;29.00;99.90;;;;;;5136185;27;20199;-83
2022/09/03 12:19:05;;;;;;;1.98;1.00;;;29.10;99.90;;;;;;5137104;27;20195;-83
2022/09/03 12:21:38;;;;;;;4.50;0.95;;;29.00;99.90;;;;;;5102089;27;20201;-82
2022/09/03 12:24:10;;;;;;;2.13;1.13;;;29.20;99.90;;;;;;5096206;28;20666;-85
2022/09/03 12:26:41;;;;;;;3.08;1.70;;;29.20;99.90;;;;;;5096244;28;20204;-84
2022/09/03 12:29:22;;;;;;;3.35;1.50;;;29.20;99.90;;;;;;5105320;28;20191;-83
2022/09/03 12:31:50;;;;;;;1.75;1.10;;;29.40;99.90;;;;;;5115900;28;20230;-85
2022/09/03 12:34:19;;;;;;;2.67;1.10;;;29.40;99.90;;;;;;5116642;28;20326;-86
2022/09/03 12:36:48;;;;;;;2.45;1.02;;;29.60;99.90;;;;;;5116239;28;20250;-84
2022/09/03 12:39:18;;;;;;;1.45;1.20;;;29.60;99.90;;;;;;5106378;28;20287;-86
2022/09/03 12:42:00;;;;;;;1.85;1.02;;;29.60;99.60;;;;;;5104293;28;20225;-88
2022/09/03 12:44:28;;;;;;;3.28;1.20;;;29.70;99.90;;;;;;5114264;27;20214;-84
2022/09/03 12:47:05;;;;;;;4.47;1.25;;;29.60;99.60;;;;;;5104608;28;20279;-84
2022/09/03 12:49:37;;;;;;;1.80;0.80;;;29.50;98.60;;;;;;5100943;28;20279;-84
2022/09/03 12:52:11;;;;;;;2.45;1.20;;;29.70;99.00;;;;;;5096585;28;20232;-85
2022/09/03 12:54:46;;;;;;;4.80;1.25;;;29.70;98.60;;;;;;5089020;28;20284;-85
2022/09/03 12:57:20;;;;;;;1.65;0.98;;;29.60;98.00;;;;;;5095162;28;20203;-86
2022/09/03 12:59:49;;;;;;;3.33;1.10;;;29.80;98.70;;;;;;5073844;28;20209;-91
2022/09/03 13:02:21;;;;;;;3.00;1.40;;;29.80;98.90;;;;;;5074954;28;20208;-86
2022/09/03 13:04:50;;;;;;;2.13;1.27;;;29.50;95.60;;;;;;5075779;28;20276;-85
2022/09/03 13:07:27;;;;;;;1.30;1.13;;;29.50;96.60;;;;;;5075715;28;20208;-85
2022/09/03 13:10:03;;;;;;;3.42;1.40;;;29.60;96.10;;;;;;5075348;28;20200;-86
2022/09/03 13:12:34;;;;;;;1.65;0.98;;;29.50;96.10;;;;;;5075589;28;20506;-87
2022/09/03 13:15:09;;;;;;;7.57;1.17;;;29.50;94.50;;;;;;5074588;28;20225;-85
2022/09/03 13:18:01;;;;;;;1.75;1.10;;;29.40;94.10;;;;;;5075233;28;20534;-85
2022/09/03 13:20:39;;;;;;;1.33;1.10;;;29.50;94.60;;;;;;5063537;28;20228;-80